Portada
METAR-TAF:

METAR-TAF

Aeroports :

Wuhan, Xina

latitud: 30-37N, longitud: 114-08E, altitud: 23 m

Observació

L'informe es va fer fa 16 minuts, a les 12:00 UTC
Vent 4 kt del Sud/Sud-Est
Temperatura 11°C
Humitat 66%
Pressió 1021 hPa
Visibilitat 10 km o més
Cel ennuvolat a una alçada de 4000 ft
pluja

METAR: ZHHH 281200Z 15002MPS 9999 -RA BKN040 11/05 Q1021 NOSIG

Hora: 20:16 (12:16 UTC)

Pronòstic

L'informe es va fer fa 3 hores i 11 minuts, a les 09:05 UTC
Pronòstic vàlid del 28 a les 12 UTC al 29 a les 12 UTC
Vent 6 kt del Nord/Nord-Oest
Visibilitat: 6000 m
Núvols disperses a una alçada de 1100 ft
Cel ennuvolat a una alçada de 4000 ft
Evolucionant progressivament
l' 28 a les 17 UTC al 28 a les 18 UTC
Visibilitat: 3000 m
pluja, boirina
Evolucionant progressivament
l' 29 a les 05 UTC al 29 a les 06 UTC
Visibilitat: 5000 m
boirina

TAF: ZHHH 280905Z 2812/2912 33003MPS 6000 SCT011 BKN040 TX12/2907Z TN05/2822Z BECMG 2817/2818 3000 -RA BR BECMG 2905/2906 5000 BR

Observacions i pronòstics meteorològics de més de 4000 aeroports (METAR i TAF).

Les estacions disponibles són els punts grocs i vermells al mapa.

Posi el ratolí al punt desitjat per veure el nom de l'estació.

Feu clic per veure les observacions i els pronòstics meteorològics.

Per canviar el mapa: feu clic els botons verds amb una creu de color negre per apropar; al botó verd amb un guió per allunyar la imatge; o en les fletxes verdes per a mapes adjacents.


METAR-TAF: